sensor_id;sensor_type;location;lat;lon;timestamp;temperature;humidity
13389;DHT22;6764;53.250;10.410;2023-10-08T00:02:25;13.00;99.90
13389;DHT22;6764;53.250;10.410;2023-10-08T00:04:51;13.00;99.90
13389;DHT22;6764;53.250;10.410;2023-10-08T00:07:21;13.00;99.90
13389;DHT22;6764;53.250;10.410;2023-10-08T00:09:50;13.10;99.90
13389;DHT22;6764;53.250;10.410;2023-10-08T00:12:17;13.10;99.90
13389;DHT22;6764;53.250;10.410;2023-10-08T00:14:43;13.00;99.90
13389;DHT22;6764;53.250;10.410;2023-10-08T00:17:16;13.00;99.90
13389;DHT22;6764;53.250;10.410;2023-10-08T00:19:42;13.10;99.90
13389;DHT22;6764;53.250;10.410;2023-10-08T00:22:12;13.20;99.90
13389;DHT22;6764;53.250;10.410;2023-10-08T00:24:43;13.10;99.90
13389;DHT22;6764;53.250;10.410;2023-10-08T00:27:11;13.00;99.90
13389;DHT22;6764;53.250;10.410;2023-10-08T00:29:40;13.00;99.90
13389;DHT22;6764;53.250;10.410;2023-10-08T00:32:08;13.00;99.90
13389;DHT22;6764;53.250;10.410;2023-10-08T00:34:41;13.10;99.90
13389;DHT22;6764;53.250;10.410;2023-10-08T00:37:11;13.00;99.90
13389;DHT22;6764;53.250;10.410;2023-10-08T00:39:40;13.00;99.90
13389;DHT22;6764;53.250;10.410;2023-10-08T00:42:06;13.00;99.90
13389;DHT22;6764;53.250;10.410;2023-10-08T00:44:38;13.00;99.90
13389;DHT22;6764;53.250;10.410;2023-10-08T00:47:13;13.00;99.90
13389;DHT22;6764;53.250;10.410;2023-10-08T00:49:39;13.00;99.90
13389;DHT22;6764;53.250;10.410;2023-10-08T00:52:12;13.00;99.90
13389;DHT22;6764;53.250;10.410;2023-10-08T00:54:39;13.00;99.90
13389;DHT22;6764;53.250;10.410;2023-10-08T00:57:18;13.00;99.90
13389;DHT22;6764;53.250;10.410;2023-10-08T00:59:46;13.00;99.90
13389;DHT22;6764;53.250;10.410;2023-10-08T01:02:22;13.00;99.90
13389;DHT22;6764;53.250;10.410;2023-10-08T01:04:54;13.00;99.90
13389;DHT22;6764;53.250;10.410;2023-10-08T01:07:21;13.00;99.90
13389;DHT22;6764;53.250;10.410;2023-10-08T01:09:49;13.00;99.90
13389;DHT22;6764;53.250;10.410;2023-10-08T01:12:24;13.10;99.90
13389;DHT22;6764;53.250;10.410;2023-10-08T01:14:53;12.90;99.90
13389;DHT22;6764;53.250;10.410;2023-10-08T01:17:20;12.80;99.90
13389;DHT22;6764;53.250;10.410;2023-10-08T01:19:50;12.80;99.90
13389;DHT22;6764;53.250;10.410;2023-10-08T01:22:25;12.80;99.90
13389;DHT22;6764;53.250;10.410;2023-10-08T01:24:54;12.80;99.90
13389;DHT22;6764;53.250;10.410;2023-10-08T01:27:20;12.80;99.90
13389;DHT22;6764;53.250;10.410;2023-10-08T01:29:48;12.80;99.90
13389;DHT22;6764;53.250;10.410;2023-10-08T01:32:18;12.80;99.90
13389;DHT22;6764;53.250;10.410;2023-10-08T01:34:44;12.80;99.90
13389;DHT22;6764;53.250;10.410;2023-10-08T01:37:14;12.80;99.90
13389;DHT22;6764;53.250;10.410;2023-10-08T01:39:39;12.90;99.90
13389;DHT22;6764;53.250;10.410;2023-10-08T01:42:08;12.90;99.90
13389;DHT22;6764;53.250;10.410;2023-10-08T01:44:42;12.90;99.90
13389;DHT22;6764;53.250;10.410;2023-10-08T01:47:12;12.90;99.90
13389;DHT22;6764;53.250;10.410;2023-10-08T01:49:38;12.90;99.90
13389;DHT22;6764;53.250;10.410;2023-10-08T01:52:05;12.90;99.90
13389;DHT22;6764;53.250;10.410;2023-10-08T01:54:43;12.90;99.90
13389;DHT22;6764;53.250;10.410;2023-10-08T01:57:10;12.90;99.90
13389;DHT22;6764;53.250;10.410;2023-10-08T01:59:36;12.90;99.90
13389;DHT22;6764;53.250;10.410;2023-10-08T02:02:03;12.90;99.90
13389;DHT22;6764;53.250;10.410;2023-10-08T02:04:34;13.00;99.90
13389;DHT22;6764;53.250;10.410;2023-10-08T02:07:01;12.90;99.90
13389;DHT22;6764;53.250;10.410;2023-10-08T02:09:27;12.90;99.90
13389;DHT22;6764;53.250;10.410;2023-10-08T02:11:53;13.00;99.90
13389;DHT22;6764;53.250;10.410;2023-10-08T02:14:20;13.00;99.90
13389;DHT22;6764;53.250;10.410;2023-10-08T02:16:46;13.00;99.90
13389;DHT22;6764;53.250;10.410;2023-10-08T02:19:13;13.00;99.90
13389;DHT22;6764;53.250;10.410;2023-10-08T02:21:40;12.90;99.90
13389;DHT22;6764;53.250;10.410;2023-10-08T02:24:06;13.00;99.90
13389;DHT22;6764;53.250;10.410;2023-10-08T02:26:36;13.00;99.90
13389;DHT22;6764;53.250;10.410;2023-10-08T02:29:03;12.90;99.90
13389;DHT22;6764;53.250;10.410;2023-10-08T02:31:31;13.00;99.90
13389;DHT22;6764;53.250;10.410;2023-10-08T02:33:58;13.00;99.90
13389;DHT22;6764;53.250;10.410;2023-10-08T02:36:24;13.00;99.90
13389;DHT22;6764;53.250;10.410;2023-10-08T02:38:50;13.00;99.90
13389;DHT22;6764;53.250;10.410;2023-10-08T02:41:16;12.90;99.90
13389;DHT22;6764;53.250;10.410;2023-10-08T02:43:42;12.90;99.90
13389;DHT22;6764;53.250;10.410;2023-10-08T02:46:13;12.90;99.90
13389;DHT22;6764;53.250;10.410;2023-10-08T02:48:41;12.90;99.90
13389;DHT22;6764;53.250;10.410;2023-10-08T02:51:07;12.90;99.90
13389;DHT22;6764;53.250;10.410;2023-10-08T02:53:36;13.00;99.90
13389;DHT22;6764;53.250;10.410;2023-10-08T02:56:02;12.90;99.90
13389;DHT22;6764;53.250;10.410;2023-10-08T02:58:37;12.90;99.90
13389;DHT22;6764;53.250;10.410;2023-10-08T03:01:04;12.90;99.90
13389;DHT22;6764;53.250;10.410;2023-10-08T03:03:29;12.90;99.90
13389;DHT22;6764;53.250;10.410;2023-10-08T03:05:58;12.90;99.90
13389;DHT22;6764;53.250;10.410;2023-10-08T03:08:23;12.90;99.90
13389;DHT22;6764;53.250;10.410;2023-10-08T03:10:50;12.90;99.90
13389;DHT22;6764;53.250;10.410;2023-10-08T03:13:24;12.90;99.90
13389;DHT22;6764;53.250;10.410;2023-10-08T03:15:51;12.90;99.90
13389;DHT22;6764;53.250;10.410;2023-10-08T03:18:33;12.90;99.90
13389;DHT22;6764;53.250;10.410;2023-10-08T03:21:06;12.90;99.90
13389;DHT22;6764;53.250;10.410;2023-10-08T03:23:46;12.90;99.90
13389;DHT22;6764;53.250;10.410;2023-10-08T03:26:13;12.90;99.90
13389;DHT22;6764;53.250;10.410;2023-10-08T03:29:04;12.90;99.90
13389;DHT22;6764;53.250;10.410;2023-10-08T03:31:34;12.80;99.90
13389;DHT22;6764;53.250;10.410;2023-10-08T03:34:12;12.80;99.90
13389;DHT22;6764;53.250;10.410;2023-10-08T03:36:39;12.90;99.90
13389;DHT22;6764;53.250;10.410;2023-10-08T03:39:13;12.90;99.90
13389;DHT22;6764;53.250;10.410;2023-10-08T03:41:40;12.80;99.90
13389;DHT22;6764;53.250;10.410;2023-10-08T03:44:07;12.80;99.90
13389;DHT22;6764;53.250;10.410;2023-10-08T03:46:42;12.90;99.90
13389;DHT22;6764;53.250;10.410;2023-10-08T03:49:12;12.90;99.90
13389;DHT22;6764;53.250;10.410;2023-10-08T03:51:57;12.90;99.90
13389;DHT22;6764;53.250;10.410;2023-10-08T03:54:23;12.90;99.90
13389;DHT22;6764;53.250;10.410;2023-10-08T03:56:56;12.90;99.90
13389;DHT22;6764;53.250;10.410;2023-10-08T03:59:21;12.90;99.90
13389;DHT22;6764;53.250;10.410;2023-10-08T04:02:05;12.80;99.90
13389;DHT22;6764;53.250;10.410;2023-10-08T04:04:49;12.80;99.90
13389;DHT22;6764;53.250;10.410;2023-10-08T04:07:22;12.80;99.90
13389;DHT22;6764;53.250;10.410;2023-10-08T04:10:10;12.80;99.90
13389;DHT22;6764;53.250;10.410;2023-10-08T04:12:39;12.70;99.90
13389;DHT22;6764;53.250;10.410;2023-10-08T04:15:16;12.70;99.90
13389;DHT22;6764;53.250;10.410;2023-10-08T04:17:42;12.70;99.90
13389;DHT22;6764;53.250;10.410;2023-10-08T04:20:16;12.70;99.90
13389;DHT22;6764;53.250;10.410;2023-10-08T04:23:02;12.70;99.90
13389;DHT22;6764;53.250;10.410;2023-10-08T04:25:30;12.80;99.90
13389;DHT22;6764;53.250;10.410;2023-10-08T04:27:57;12.70;99.90
13389;DHT22;6764;53.250;10.410;2023-10-08T04:33:02;12.60;99.90
13389;DHT22;6764;53.250;10.410;2023-10-08T04:35:33;12.60;99.90
13389;DHT22;6764;53.250;10.410;2023-10-08T04:38:05;12.70;99.90
13389;DHT22;6764;53.250;10.410;2023-10-08T04:40:35;12.70;99.90
13389;DHT22;6764;53.250;10.410;2023-10-08T04:43:07;12.70;99.90
13389;DHT22;6764;53.250;10.410;2023-10-08T04:45:36;12.70;99.90
13389;DHT22;6764;53.250;10.410;2023-10-08T04:48:04;12.70;99.90
13389;DHT22;6764;53.250;10.410;2023-10-08T04:50:35;12.70;99.90
13389;DHT22;6764;53.250;10.410;2023-10-08T04:53:03;12.70;99.90
13389;DHT22;6764;53.250;10.410;2023-10-08T04:55:34;12.70;99.90
13389;DHT22;6764;53.250;10.410;2023-10-08T04:58:00;12.80;99.90
13389;DHT22;6764;53.250;10.410;2023-10-08T05:00:30;12.80;99.90
13389;DHT22;6764;53.250;10.410;2023-10-08T05:03:19;12.80;99.90
13389;DHT22;6764;53.250;10.410;2023-10-08T05:05:48;12.80;99.90
13389;DHT22;6764;53.250;10.410;2023-10-08T05:08:34;12.70;99.90
13389;DHT22;6764;53.250;10.410;2023-10-08T05:11:19;12.70;99.90
13389;DHT22;6764;53.250;10.410;2023-10-08T05:14:02;12.70;99.90
13389;DHT22;6764;53.250;10.410;2023-10-08T05:16:32;12.70;99.90
13389;DHT22;6764;53.250;10.410;2023-10-08T05:19:26;12.70;99.90
13389;DHT22;6764;53.250;10.410;2023-10-08T05:22:10;12.70;99.90
13389;DHT22;6764;53.250;10.410;2023-10-08T05:24:55;12.70;99.90
13389;DHT22;6764;53.250;10.410;2023-10-08T05:27:40;12.60;99.90
13389;DHT22;6764;53.250;10.410;2023-10-08T05:30:30;12.70;99.90
13389;DHT22;6764;53.250;10.410;2023-10-08T05:33:18;12.70;99.90
13389;DHT22;6764;53.250;10.410;2023-10-08T05:35:51;12.70;99.90
13389;DHT22;6764;53.250;10.410;2023-10-08T05:38:28;12.70;99.90
13389;DHT22;6764;53.250;10.410;2023-10-08T05:41:00;12.70;99.90
13389;DHT22;6764;53.250;10.410;2023-10-08T05:43:37;12.70;99.90
13389;DHT22;6764;53.250;10.410;2023-10-08T05:46:06;12.70;99.90
13389;DHT22;6764;53.250;10.410;2023-10-08T05:48:50;12.70;99.90
13389;DHT22;6764;53.250;10.410;2023-10-08T05:51:28;12.70;99.90
13389;DHT22;6764;53.250;10.410;2023-10-08T05:54:18;12.70;99.90
13389;DHT22;6764;53.250;10.410;2023-10-08T05:57:04;12.70;99.90
13389;DHT22;6764;53.250;10.410;2023-10-08T05:59:43;12.70;99.90
13389;DHT22;6764;53.250;10.410;2023-10-08T06:02:40;12.60;99.90
13389;DHT22;6764;53.250;10.410;2023-10-08T06:05:12;12.60;99.90
13389;DHT22;6764;53.250;10.410;2023-10-08T06:07:38;12.60;99.90
13389;DHT22;6764;53.250;10.410;2023-10-08T06:10:32;12.60;99.90
13389;DHT22;6764;53.250;10.410;2023-10-08T06:13:04;12.60;99.90
13389;DHT22;6764;53.250;10.410;2023-10-08T06:15:50;12.60;99.90
13389;DHT22;6764;53.250;10.410;2023-10-08T06:18:25;12.60;99.90
13389;DHT22;6764;53.250;10.410;2023-10-08T06:21:02;12.60;99.90
13389;DHT22;6764;53.250;10.410;2023-10-08T06:23:35;12.50;99.90
13389;DHT22;6764;53.250;10.410;2023-10-08T06:26:02;12.50;99.90
13389;DHT22;6764;53.250;10.410;2023-10-08T06:28:41;12.50;99.90
13389;DHT22;6764;53.250;10.410;2023-10-08T06:31:07;12.50;99.90
13389;DHT22;6764;53.250;10.410;2023-10-08T06:33:44;12.50;99.90
13389;DHT22;6764;53.250;10.410;2023-10-08T06:36:10;12.60;99.90
13389;DHT22;6764;53.250;10.410;2023-10-08T06:38:36;12.60;99.90
13389;DHT22;6764;53.250;10.410;2023-10-08T06:41:05;12.60;99.90
13389;DHT22;6764;53.250;10.410;2023-10-08T06:43:40;12.60;99.90
13389;DHT22;6764;53.250;10.410;2023-10-08T06:46:12;12.70;99.90
13389;DHT22;6764;53.250;10.410;2023-10-08T06:48:38;12.70;99.90
13389;DHT22;6764;53.250;10.410;2023-10-08T06:51:09;12.60;99.90
13389;DHT22;6764;53.250;10.410;2023-10-08T06:53:48;12.70;99.90
13389;DHT22;6764;53.250;10.410;2023-10-08T06:56:17;12.70;99.90
13389;DHT22;6764;53.250;10.410;2023-10-08T06:58:45;12.70;99.90
13389;DHT22;6764;53.250;10.410;2023-10-08T07:01:16;12.60;99.90
13389;DHT22;6764;53.250;10.410;2023-10-08T07:03:49;12.60;99.90
13389;DHT22;6764;53.250;10.410;2023-10-08T07:06:16;12.60;99.90
13389;DHT22;6764;53.250;10.410;2023-10-08T07:08:43;12.60;99.90
13389;DHT22;6764;53.250;10.410;2023-10-08T07:11:12;12.60;99.90
13389;DHT22;6764;53.250;10.410;2023-10-08T07:13:39;12.50;99.90
13389;DHT22;6764;53.250;10.410;2023-10-08T07:16:07;12.50;99.90
13389;DHT22;6764;53.250;10.410;2023-10-08T07:18:37;12.50;99.90
13389;DHT22;6764;53.250;10.410;2023-10-08T07:21:03;12.60;99.90
13389;DHT22;6764;53.250;10.410;2023-10-08T07:23:30;12.60;99.90
13389;DHT22;6764;53.250;10.410;2023-10-08T07:26:01;12.60;99.90
13389;DHT22;6764;53.250;10.410;2023-10-08T07:28:43;12.60;99.90
13389;DHT22;6764;53.250;10.410;2023-10-08T07:31:23;12.70;99.90
13389;DHT22;6764;53.250;10.410;2023-10-08T07:33:54;12.70;99.90
13389;DHT22;6764;53.250;10.410;2023-10-08T07:36:26;12.80;99.90
13389;DHT22;6764;53.250;10.410;2023-10-08T07:38:53;12.80;99.90
13389;DHT22;6764;53.250;10.410;2023-10-08T07:41:19;12.80;99.90
13389;DHT22;6764;53.250;10.410;2023-10-08T07:43:46;12.70;99.90
13389;DHT22;6764;53.250;10.410;2023-10-08T07:46:21;12.80;99.90
13389;DHT22;6764;53.250;10.410;2023-10-08T07:48:47;12.70;99.90
13389;DHT22;6764;53.250;10.410;2023-10-08T07:51:14;12.80;99.90
13389;DHT22;6764;53.250;10.410;2023-10-08T07:53:40;12.80;99.90
13389;DHT22;6764;53.250;10.410;2023-10-08T07:56:07;12.90;99.90
13389;DHT22;6764;53.250;10.410;2023-10-08T07:58:34;12.90;99.90
13389;DHT22;6764;53.250;10.410;2023-10-08T08:01:07;13.00;99.90
13389;DHT22;6764;53.250;10.410;2023-10-08T08:03:34;13.00;99.90
13389;DHT22;6764;53.250;10.410;2023-10-08T08:06:09;12.90;99.90
13389;DHT22;6764;53.250;10.410;2023-10-08T08:08:36;13.00;99.90
13389;DHT22;6764;53.250;10.410;2023-10-08T08:11:05;13.00;99.90
13389;DHT22;6764;53.250;10.410;2023-10-08T08:13:39;13.00;99.90
13389;DHT22;6764;53.250;10.410;2023-10-08T08:16:05;13.10;99.90
13389;DHT22;6764;53.250;10.410;2023-10-08T08:18:49;13.10;99.90
13389;DHT22;6764;53.250;10.410;2023-10-08T08:21:16;13.20;99.90
13389;DHT22;6764;53.250;10.410;2023-10-08T08:23:46;13.20;99.90
13389;DHT22;6764;53.250;10.410;2023-10-08T08:26:16;13.20;99.90
13389;DHT22;6764;53.250;10.410;2023-10-08T08:31:20;13.30;99.90
13389;DHT22;6764;53.250;10.410;2023-10-08T08:33:46;13.40;99.90
13389;DHT22;6764;53.250;10.410;2023-10-08T08:36:50;13.40;99.90
13389;DHT22;6764;53.250;10.410;2023-10-08T08:39:16;13.40;99.90
13389;DHT22;6764;53.250;10.410;2023-10-08T08:41:59;13.50;99.90
13389;DHT22;6764;53.250;10.410;2023-10-08T08:44:28;13.50;99.90
13389;DHT22;6764;53.250;10.410;2023-10-08T08:47:03;13.60;99.90
13389;DHT22;6764;53.250;10.410;2023-10-08T08:49:33;13.70;99.90
13389;DHT22;6764;53.250;10.410;2023-10-08T08:52:05;13.60;99.90
13389;DHT22;6764;53.250;10.410;2023-10-08T08:54:31;13.60;99.90
13389;DHT22;6764;53.250;10.410;2023-10-08T08:57:02;13.70;99.90
13389;DHT22;6764;53.250;10.410;2023-10-08T08:59:29;13.60;99.90
13389;DHT22;6764;53.250;10.410;2023-10-08T09:01:57;13.70;99.90
13389;DHT22;6764;53.250;10.410;2023-10-08T09:04:31;13.70;99.90
13389;DHT22;6764;53.250;10.410;2023-10-08T09:06:59;13.80;99.90
13389;DHT22;6764;53.250;10.410;2023-10-08T09:09:32;13.80;99.90
13389;DHT22;6764;53.250;10.410;2023-10-08T09:11:58;13.80;99.90
13389;DHT22;6764;53.250;10.410;2023-10-08T09:14:25;13.90;99.90
13389;DHT22;6764;53.250;10.410;2023-10-08T09:16:53;13.90;99.90
13389;DHT22;6764;53.250;10.410;2023-10-08T09:19:19;14.00;99.90
13389;DHT22;6764;53.250;10.410;2023-10-08T09:22:09;14.10;99.90
13389;DHT22;6764;53.250;10.410;2023-10-08T09:24:40;14.10;99.90
13389;DHT22;6764;53.250;10.410;2023-10-08T09:27:10;14.30;99.90
13389;DHT22;6764;53.250;10.410;2023-10-08T09:29:39;15.10;99.90
13389;DHT22;6764;53.250;10.410;2023-10-08T09:32:08;16.70;99.90
13389;DHT22;6764;53.250;10.410;2023-10-08T09:34:33;19.00;99.90
13389;DHT22;6764;53.250;10.410;2023-10-08T09:37:00;21.00;99.90
13389;DHT22;6764;53.250;10.410;2023-10-08T09:39:27;22.70;99.90
13389;DHT22;6764;53.250;10.410;2023-10-08T09:41:55;24.30;99.90
13389;DHT22;6764;53.250;10.410;2023-10-08T09:44:22;25.70;99.30
13389;DHT22;6764;53.250;10.410;2023-10-08T09:49:30;27.10;93.20
13389;DHT22;6764;53.250;10.410;2023-10-08T09:52:00;27.70;93.00
13389;DHT22;6764;53.250;10.410;2023-10-08T09:54:32;28.60;91.50
13389;DHT22;6764;53.250;10.410;2023-10-08T09:57:05;29.50;88.50
13389;DHT22;6764;53.250;10.410;2023-10-08T09:59:33;28.90;86.20
13389;DHT22;6764;53.250;10.410;2023-10-08T10:01:59;28.40;85.90
13389;DHT22;6764;53.250;10.410;2023-10-08T10:04:26;28.80;88.30
13389;DHT22;6764;53.250;10.410;2023-10-08T10:06:57;29.30;84.80
13389;DHT22;6764;53.250;10.410;2023-10-08T10:09:25;29.60;81.60
13389;DHT22;6764;53.250;10.410;2023-10-08T10:11:53;29.80;81.10
13389;DHT22;6764;53.250;10.410;2023-10-08T10:14:22;30.50;75.30
13389;DHT22;6764;53.250;10.410;2023-10-08T10:19:37;29.00;76.60
13389;DHT22;6764;53.250;10.410;2023-10-08T10:22:03;29.80;74.00
13389;DHT22;6764;53.250;10.410;2023-10-08T10:24:36;30.50;71.70
13389;DHT22;6764;53.250;10.410;2023-10-08T10:27:14;31.00;71.30
13389;DHT22;6764;53.250;10.410;2023-10-08T10:29:43;30.50;70.00
13389;DHT22;6764;53.250;10.410;2023-10-08T10:32:14;30.20;69.20
13389;DHT22;6764;53.250;10.410;2023-10-08T10:34:41;30.10;70.20
13389;DHT22;6764;53.250;10.410;2023-10-08T10:37:07;30.20;69.70
13389;DHT22;6764;53.250;10.410;2023-10-08T10:39:55;30.50;67.10
13389;DHT22;6764;53.250;10.410;2023-10-08T10:42:24;30.50;64.90
13389;DHT22;6764;53.250;10.410;2023-10-08T10:44:52;29.10;65.50
13389;DHT22;6764;53.250;10.410;2023-10-08T10:47:19;28.50;67.00
13389;DHT22;6764;53.250;10.410;2023-10-08T10:49:49;28.40;68.50
13389;DHT22;6764;53.250;10.410;2023-10-08T10:52:26;28.00;68.80
13389;DHT22;6764;53.250;10.410;2023-10-08T10:55:06;27.00;70.90
13389;DHT22;6764;53.250;10.410;2023-10-08T10:57:42;25.90;72.70
13389;DHT22;6764;53.250;10.410;2023-10-08T11:00:08;24.70;75.30
13389;DHT22;6764;53.250;10.410;2023-10-08T11:02:53;23.50;77.80
13389;DHT22;6764;53.250;10.410;2023-10-08T11:05:32;22.50;81.80
13389;DHT22;6764;53.250;10.410;2023-10-08T11:08:02;21.70;84.00
13389;DHT22;6764;53.250;10.410;2023-10-08T11:10:32;21.20;86.80
13389;DHT22;6764;53.250;10.410;2023-10-08T11:12:58;20.60;89.20
13389;DHT22;6764;53.250;10.410;2023-10-08T11:15:29;20.10;91.10
13389;DHT22;6764;53.250;10.410;2023-10-08T11:18:13;19.80;91.00
13389;DHT22;6764;53.250;10.410;2023-10-08T11:20:41;19.30;91.60
13389;DHT22;6764;53.250;10.410;2023-10-08T11:23:10;19.00;93.10
13389;DHT22;6764;53.250;10.410;2023-10-08T11:25:59;18.80;93.20
13389;DHT22;6764;53.250;10.410;2023-10-08T11:28:38;18.40;93.90
13389;DHT22;6764;53.250;10.410;2023-10-08T11:31:09;18.10;94.30
13389;DHT22;6764;53.250;10.410;2023-10-08T11:33:43;17.90;95.60
13389;DHT22;6764;53.250;10.410;2023-10-08T11:36:20;18.10;95.20
13389;DHT22;6764;53.250;10.410;2023-10-08T11:38:57;18.20;94.70
13389;DHT22;6764;53.250;10.410;2023-10-08T11:41:32;18.20;94.90
13389;DHT22;6764;53.250;10.410;2023-10-08T11:44:15;18.20;95.50
13389;DHT22;6764;53.250;10.410;2023-10-08T11:46:45;18.30;94.80
13389;DHT22;6764;53.250;10.410;2023-10-08T11:49:12;18.40;94.90
13389;DHT22;6764;53.250;10.410;2023-10-08T11:51:46;18.30;94.90
13389;DHT22;6764;53.250;10.410;2023-10-08T11:54:12;18.20;95.40
13389;DHT22;6764;53.250;10.410;2023-10-08T11:56:39;18.20;95.60
13389;DHT22;6764;53.250;10.410;2023-10-08T11:59:05;18.10;95.20
13389;DHT22;6764;53.250;10.410;2023-10-08T12:01:35;18.30;95.80
13389;DHT22;6764;53.250;10.410;2023-10-08T12:04:01;18.40;95.50
13389;DHT22;6764;53.250;10.410;2023-10-08T12:06:27;18.50;95.20
13389;DHT22;6764;53.250;10.410;2023-10-08T12:08:56;18.40;95.30
13389;DHT22;6764;53.250;10.410;2023-10-08T12:11:25;18.40;95.40
13389;DHT22;6764;53.250;10.410;2023-10-08T12:13:56;18.40;95.20
13389;DHT22;6764;53.250;10.410;2023-10-08T12:16:24;18.40;94.80
13389;DHT22;6764;53.250;10.410;2023-10-08T12:18:51;18.30;94.10
13389;DHT22;6764;53.250;10.410;2023-10-08T12:21:33;18.20;94.80
13389;DHT22;6764;53.250;10.410;2023-10-08T12:23:59;18.20;94.50
13389;DHT22;6764;53.250;10.410;2023-10-08T12:26:25;17.90;93.60
13389;DHT22;6764;53.250;10.410;2023-10-08T12:28:51;17.90;94.50
13389;DHT22;6764;53.250;10.410;2023-10-08T12:31:19;17.90;94.40
13389;DHT22;6764;53.250;10.410;2023-10-08T12:33:48;17.90;94.60
13389;DHT22;6764;53.250;10.410;2023-10-08T12:36:14;17.90;94.60
13389;DHT22;6764;53.250;10.410;2023-10-08T12:38:43;18.00;94.90
13389;DHT22;6764;53.250;10.410;2023-10-08T12:41:12;18.00;95.10
13389;DHT22;6764;53.250;10.410;2023-10-08T12:43:39;18.00;95.30
13389;DHT22;6764;53.250;10.410;2023-10-08T12:46:08;17.90;95.30
13389;DHT22;6764;53.250;10.410;2023-10-08T12:48:36;18.00;95.20
13389;DHT22;6764;53.250;10.410;2023-10-08T12:51:02;18.10;94.80
13389;DHT22;6764;53.250;10.410;2023-10-08T12:53:31;18.00;93.80
13389;DHT22;6764;53.250;10.410;2023-10-08T12:56:06;17.70;93.10
13389;DHT22;6764;53.250;10.410;2023-10-08T12:58:33;17.50;93.40
13389;DHT22;6764;53.250;10.410;2023-10-08T13:01:07;17.50;93.10
13389;DHT22;6764;53.250;10.410;2023-10-08T13:03:35;17.40;94.00
13389;DHT22;6764;53.250;10.410;2023-10-08T13:06:09;17.30;94.30
13389;DHT22;6764;53.250;10.410;2023-10-08T13:08:40;17.30;94.40
13389;DHT22;6764;53.250;10.410;2023-10-08T13:11:06;17.20;94.20
13389;DHT22;6764;53.250;10.410;2023-10-08T13:13:32;17.20;94.90
13389;DHT22;6764;53.250;10.410;2023-10-08T13:15:58;17.20;95.90
13389;DHT22;6764;53.250;10.410;2023-10-08T13:18:28;17.20;97.20
13389;DHT22;6764;53.250;10.410;2023-10-08T13:20:55;17.30;96.50
13389;DHT22;6764;53.250;10.410;2023-10-08T13:23:21;17.40;96.90
13389;DHT22;6764;53.250;10.410;2023-10-08T13:25:49;17.50;96.90
13389;DHT22;6764;53.250;10.410;2023-10-08T13:28:23;17.60;97.50
13389;DHT22;6764;53.250;10.410;2023-10-08T13:30:52;17.70;97.50
13389;DHT22;6764;53.250;10.410;2023-10-08T13:33:21;17.70;97.00
13389;DHT22;6764;53.250;10.410;2023-10-08T13:35:51;17.70;97.30
13389;DHT22;6764;53.250;10.410;2023-10-08T13:38:19;17.60;97.90
13389;DHT22;6764;53.250;10.410;2023-10-08T13:40:46;17.50;98.40
13389;DHT22;6764;53.250;10.410;2023-10-08T13:43:31;17.50;98.60
13389;DHT22;6764;53.250;10.410;2023-10-08T13:46:01;17.50;98.80
13389;DHT22;6764;53.250;10.410;2023-10-08T13:48:33;17.80;98.40
13389;DHT22;6764;53.250;10.410;2023-10-08T13:51:03;17.70;98.20
13389;DHT22;6764;53.250;10.410;2023-10-08T13:53:32;17.60;98.30
13389;DHT22;6764;53.250;10.410;2023-10-08T13:56:01;17.50;98.40
13389;DHT22;6764;53.250;10.410;2023-10-08T13:58:28;17.30;98.50
13389;DHT22;6764;53.250;10.410;2023-10-08T14:00:58;17.30;99.10
13389;DHT22;6764;53.250;10.410;2023-10-08T14:03:29;17.40;98.80
13389;DHT22;6764;53.250;10.410;2023-10-08T14:05:59;17.30;99.10
13389;DHT22;6764;53.250;10.410;2023-10-08T14:08:30;17.30;98.30
13389;DHT22;6764;53.250;10.410;2023-10-08T14:10:57;17.20;98.60
13389;DHT22;6764;53.250;10.410;2023-10-08T14:13:32;17.20;98.30
13389;DHT22;6764;53.250;10.410;2023-10-08T14:15:58;17.30;98.20
13389;DHT22;6764;53.250;10.410;2023-10-08T14:18:25;17.30;98.10
13389;DHT22;6764;53.250;10.410;2023-10-08T14:20:57;17.20;98.10
13389;DHT22;6764;53.250;10.410;2023-10-08T14:23:23;17.20;98.00
13389;DHT22;6764;53.250;10.410;2023-10-08T14:25:51;17.30;98.20
13389;DHT22;6764;53.250;10.410;2023-10-08T14:28:20;17.20;98.20
13389;DHT22;6764;53.250;10.410;2023-10-08T14:31:05;17.20;98.10
13389;DHT22;6764;53.250;10.410;2023-10-08T14:33:31;17.20;98.60
13389;DHT22;6764;53.250;10.410;2023-10-08T14:36:08;17.30;98.50
13389;DHT22;6764;53.250;10.410;2023-10-08T14:38:52;17.20;98.30
13389;DHT22;6764;53.250;10.410;2023-10-08T14:41:36;17.10;98.30
13389;DHT22;6764;53.250;10.410;2023-10-08T14:44:20;17.10;98.20
13389;DHT22;6764;53.250;10.410;2023-10-08T14:46:46;17.10;98.40
13389;DHT22;6764;53.250;10.410;2023-10-08T14:49:12;17.00;98.50
13389;DHT22;6764;53.250;10.410;2023-10-08T14:51:38;17.00;98.70
13389;DHT22;6764;53.250;10.410;2023-10-08T14:54:06;17.00;99.40
13389;DHT22;6764;53.250;10.410;2023-10-08T14:56:34;17.00;99.40
13389;DHT22;6764;53.250;10.410;2023-10-08T14:59:00;16.90;99.50
13389;DHT22;6764;53.250;10.410;2023-10-08T15:01:26;16.80;99.90
13389;DHT22;6764;53.250;10.410;2023-10-08T15:03:53;16.70;99.90
13389;DHT22;6764;53.250;10.410;2023-10-08T15:06:19;16.70;99.90
13389;DHT22;6764;53.250;10.410;2023-10-08T15:08:46;16.60;99.90
13389;DHT22;6764;53.250;10.410;2023-10-08T15:11:12;16.70;99.90
13389;DHT22;6764;53.250;10.410;2023-10-08T15:13:37;16.60;99.90
13389;DHT22;6764;53.250;10.410;2023-10-08T15:16:06;16.60;99.90
13389;DHT22;6764;53.250;10.410;2023-10-08T15:18:31;16.60;99.90
13389;DHT22;6764;53.250;10.410;2023-10-08T15:20:58;16.60;99.90
13389;DHT22;6764;53.250;10.410;2023-10-08T15:23:23;16.60;99.90
13389;DHT22;6764;53.250;10.410;2023-10-08T15:25:53;16.60;99.90
13389;DHT22;6764;53.250;10.410;2023-10-08T15:28:19;16.60;99.90
13389;DHT22;6764;53.250;10.410;2023-10-08T15:30:45;16.50;99.90
13389;DHT22;6764;53.250;10.410;2023-10-08T15:33:11;16.40;99.90
13389;DHT22;6764;53.250;10.410;2023-10-08T15:35:38;16.40;99.90
13389;DHT22;6764;53.250;10.410;2023-10-08T15:38:05;16.30;99.90
13389;DHT22;6764;53.250;10.410;2023-10-08T15:40:31;16.30;99.90
13389;DHT22;6764;53.250;10.410;2023-10-08T15:42:58;16.40;99.90
13389;DHT22;6764;53.250;10.410;2023-10-08T15:45:24;16.30;99.90
13389;DHT22;6764;53.250;10.410;2023-10-08T15:47:50;16.30;99.90
13389;DHT22;6764;53.250;10.410;2023-10-08T15:50:17;16.30;99.90
13389;DHT22;6764;53.250;10.410;2023-10-08T15:52:46;16.40;99.90
13389;DHT22;6764;53.250;10.410;2023-10-08T15:55:13;16.40;99.90
13389;DHT22;6764;53.250;10.410;2023-10-08T15:57:39;16.40;99.90
13389;DHT22;6764;53.250;10.410;2023-10-08T16:00:08;16.40;99.90
13389;DHT22;6764;53.250;10.410;2023-10-08T16:02:34;16.30;99.90
13389;DHT22;6764;53.250;10.410;2023-10-08T16:05:00;16.30;99.90